Somonauk, Illinois
Current Conditions -  °F | °C
As of 9:52 AM on Saturday 25 Oct 2014 (Local Time) from KARR Reporting Station
Haze Haze  
Wind Chill: 61°   Ceiling: Unl
Heat Index: 61°   Visibility: 4mi
Dew Point: 54°   Wind: 13mph
Humidity: 78%   Direction: 300°WNW
Pressure: 29.97"   Gusts: NA
Location:  41.63°N, 88.68°W
Report Text: KARR 251452Z 30011KT 4SM HZ CLR 16/12 A2997 RMK AO2 SLP146 T01610122 53012
Loading
Personal Weather Stations






























Interactive Weather Map
Tropical Storm Tracking
New forecast layout! Learn more

10-Day Weather Forecast

Advertisements
Track Severe Weather on mobile